Time;durP1;ratioP1;P1;durP2;ratioP2;P2;SDS_P1;SDS_P2;PMS_P1;PMS_P2;Temp;Humidity;BMP_temperature;BMP_pressure;BME280_temperature;BME280_humidity;BME280_pressure;Samples;Min_cycle;Max_cycle;Signal;HPM_P1;HPM_P2
2021/12/27 00:00:22;;;;;;;17.23;10.02;;;;;;;;;;5097025;28;20051;-66
2021/12/27 00:02:49;;;;;;;17.48;10.75;;;;;;;;;;5096514;28;20062;-66
2021/12/27 00:05:15;;;;;;;21.98;11.60;;;;;;;;;;5097133;28;20047;-66
2021/12/27 00:07:43;;;;;;;21.13;11.07;;;;;;;;;;5080721;28;20117;-65
2021/12/27 00:10:10;;;;;;;15.85;10.18;;;0.10;99.90;;;;;;5076590;28;20442;-65
2021/12/27 00:12:35;;;;;;;18.52;11.35;;;0.10;99.90;;;;;;5076565;28;20051;-65
2021/12/27 00:15:02;;;;;;;21.42;11.52;;;0.70;99.90;;;;;;5077015;28;20036;-66
2021/12/27 00:17:28;;;;;;;21.90;11.50;;;0.10;99.90;;;;;;5076565;28;20036;-66
2021/12/27 00:19:55;;;;;;;20.27;11.80;;;-0.10;99.90;;;;;;5096575;28;20038;-66
2021/12/27 00:22:22;;;;;;;19.25;11.00;;;0.10;99.90;;;;;;5081328;28;20044;-65
2021/12/27 00:24:48;;;;;;;19.10;10.73;;;;;;;;;;5092366;28;20114;-66
2021/12/27 00:27:18;;;;;;;20.33;11.43;;;-0.10;99.90;;;;;;5114181;28;20089;-66
2021/12/27 00:29:45;;;;;;;19.85;11.48;;;-0.10;99.90;;;;;;5115133;28;20062;-66
2021/12/27 00:32:11;;;;;;;19.23;10.73;;;-0.10;99.90;;;;;;5096445;28;20472;-66
2021/12/27 00:34:37;;;;;;;17.10;11.10;;;-0.10;99.90;;;;;;5111520;28;20070;-66
2021/12/27 00:37:07;;;;;;;21.80;12.02;;;-0.10;99.90;;;;;;5093457;28;20040;-66
2021/12/27 00:39:33;;;;;;;18.75;11.15;;;-0.20;99.90;;;;;;5092541;28;20381;-66
2021/12/27 00:41:59;;;;;;;21.08;11.73;;;-0.10;99.90;;;;;;5096199;28;20047;-66
2021/12/27 00:44:25;;;;;;;18.40;11.07;;;0.00;99.90;;;;;;5079656;28;20445;-66
2021/12/27 00:46:51;;;;;;;19.85;10.88;;;-0.30;99.90;;;;;;5129796;27;20130;-66
2021/12/27 00:49:17;;;;;;;19.20;11.60;;;;;;;;;;5095455;28;20044;-66
2021/12/27 00:51:43;;;;;;;17.83;10.50;;;-0.10;99.90;;;;;;5095997;28;20043;-66
2021/12/27 00:54:08;;;;;;;19.55;11.18;;;-0.10;99.90;;;;;;5129616;27;20052;-66
2021/12/27 00:56:34;;;;;;;21.65;11.73;;;-0.10;99.90;;;;;;5096177;28;20051;-66
2021/12/27 00:58:59;;;;;;;20.80;11.27;;;-0.10;99.90;;;;;;5129890;27;20143;-66
2021/12/27 01:01:25;;;;;;;20.92;11.65;;;-0.10;99.90;;;;;;5130006;27;20122;-66
2021/12/27 01:03:51;;;;;;;23.25;12.63;;;-0.10;99.90;;;;;;5095089;28;20074;-66
2021/12/27 01:06:17;;;;;;;24.38;13.13;;;-0.10;99.90;;;;;;5129566;27;20497;-66
2021/12/27 01:08:42;;;;;;;24.17;13.10;;;-0.10;99.90;;;;;;5079390;28;20051;-66
2021/12/27 01:11:23;;;;;;;24.83;14.00;;;-0.10;99.90;;;;;;5096045;28;20058;-66
2021/12/27 01:14:03;;;;;;;23.08;12.55;;;-0.20;99.90;;;;;;5129637;27;20545;-66
2021/12/27 01:16:28;;;;;;;18.77;11.63;;;0.00;99.90;;;;;;5109268;28;20046;-66
2021/12/27 01:18:54;;;;;;;21.65;11.80;;;0.00;99.90;;;;;;5095162;28;20477;-66
2021/12/27 01:21:22;;;;;;;23.70;12.85;;;0.00;99.90;;;;;;5095013;28;20040;-66
2021/12/27 01:23:50;;;;;;;19.08;11.68;;;0.00;99.90;;;;;;5095511;28;20039;-66
2021/12/27 01:26:16;;;;;;;22.80;12.07;;;0.10;99.90;;;;;;5095951;28;20043;-65
2021/12/27 01:28:42;;;;;;;20.70;12.77;;;0.00;99.90;;;;;;5095441;28;20048;-66
2021/12/27 01:31:07;;;;;;;19.05;11.05;;;0.10;99.90;;;;;;5094987;28;20062;-66
2021/12/27 01:33:33;;;;;;;24.42;11.57;;;0.10;99.90;;;;;;5088518;28;20036;-66
2021/12/27 01:36:01;;;;;;;21.50;11.50;;;0.10;99.90;;;;;;5074883;28;20039;-66
2021/12/27 01:38:27;;;;;;;21.48;12.82;;;0.10;99.90;;;;;;5081430;28;20514;-66
2021/12/27 01:40:55;;;;;;;25.98;13.70;;;0.20;99.90;;;;;;5094842;28;20054;-65
2021/12/27 01:43:29;;;;;;;24.27;13.45;;;-0.10;99.90;;;;;;5113723;28;20263;-66
2021/12/27 01:45:56;;;;;;;19.38;12.20;;;0.00;99.90;;;;;;5095295;28;20475;-65
2021/12/27 01:48:25;;;;;;;20.10;11.98;;;-0.10;99.90;;;;;;5128324;27;20046;-66
2021/12/27 01:50:55;;;;;;;20.92;12.77;;;0.30;99.90;;;;;;5078053;28;20126;-65
2021/12/27 01:53:25;;;;;;;24.42;12.73;;;0.30;99.90;;;;;;5095199;28;20050;-66
2021/12/27 01:55:52;;;;;;;26.30;12.73;;;0.10;99.90;;;;;;5111606;28;20139;-66
2021/12/27 01:58:19;;;;;;;22.67;12.95;;;-0.10;99.90;;;;;;5094828;28;20047;-66
2021/12/27 02:00:50;;;;;;;22.98;12.20;;;0.20;99.90;;;;;;5077509;28;20051;-66
2021/12/27 02:03:18;;;;;;;19.73;12.13;;;0.00;99.90;;;;;;5094469;28;20127;-66
2021/12/27 02:05:44;;;;;;;20.48;12.75;;;0.10;99.90;;;;;;5077942;28;20050;-66
2021/12/27 02:08:10;;;;;;;20.83;12.98;;;0.10;99.90;;;;;;5095115;28;20043;-66
2021/12/27 02:10:38;;;;;;;22.30;12.63;;;-0.20;99.90;;;;;;5092588;28;20061;-66
2021/12/27 02:13:04;;;;;;;22.23;12.65;;;0.30;99.90;;;;;;5113019;28;20067;-66
2021/12/27 02:15:29;;;;;;;20.83;11.95;;;0.30;99.90;;;;;;5095036;28;20086;-66
2021/12/27 02:17:55;;;;;;;22.38;13.05;;;0.30;99.90;;;;;;5088376;28;20077;-66
2021/12/27 02:20:24;;;;;;;24.05;12.95;;;0.20;99.90;;;;;;5073917;28;20055;-66
2021/12/27 02:22:51;;;;;;;22.00;12.93;;;0.10;99.90;;;;;;5074481;28;20055;-66
2021/12/27 02:25:17;;;;;;;20.42;11.40;;;0.00;99.90;;;;;;5083979;28;20046;-66
2021/12/27 02:27:45;;;;;;;21.38;12.90;;;0.00;99.90;;;;;;5093584;28;20043;-66
2021/12/27 02:30:14;;;;;;;20.60;12.00;;;-0.20;99.90;;;;;;5076936;28;20507;-66
2021/12/27 02:33:07;;;;;;;21.75;12.82;;;0.00;99.90;;;;;;5094734;28;20478;-66
2021/12/27 02:35:38;;;;;;;22.52;12.85;;;0.10;99.90;;;;;;5090852;28;20152;-66
2021/12/27 02:38:05;;;;;;;20.88;13.32;;;0.00;99.90;;;;;;5093736;28;20169;-66
2021/12/27 02:40:32;;;;;;;19.23;11.98;;;0.00;99.90;;;;;;5093814;28;20138;-66
2021/12/27 02:43:05;;;;;;;24.10;13.10;;;-0.10;99.90;;;;;;5094505;28;20081;-66
2021/12/27 02:45:34;;;;;;;22.48;13.85;;;0.00;99.90;;;;;;5070370;28;20058;-66
2021/12/27 02:48:00;;;;;;;18.88;13.23;;;;;;;;;;5093564;28;20100;-66
2021/12/27 02:50:26;;;;;;;20.88;12.48;;;;;;;;;;5094505;28;20515;-66
2021/12/27 02:52:52;;;;;;;23.73;13.82;;;0.10;99.90;;;;;;5093939;28;20047;-66
2021/12/27 02:55:18;;;;;;;25.20;13.57;;;-0.10;99.90;;;;;;5093889;28;20533;-66
2021/12/27 02:57:46;;;;;;;24.10;14.45;;;0.00;99.90;;;;;;5077782;28;20402;-66
2021/12/27 03:00:42;;;;;;;21.77;12.95;;;0.00;99.90;;;;;;5092880;28;20050;-66
2021/12/27 03:03:08;;;;;;;24.23;14.00;;;0.00;99.90;;;;;;5124919;28;20043;-66
2021/12/27 03:05:34;;;;;;;21.83;13.63;;;-0.10;99.90;;;;;;5093451;28;20054;-65
2021/12/27 03:08:00;;;;;;;22.27;13.95;;;0.10;99.90;;;;;;5093889;28;20119;-66
2021/12/27 03:10:30;;;;;;;19.42;13.23;;;0.30;99.90;;;;;;5094046;28;20127;-66
2021/12/27 03:12:57;;;;;;;20.85;12.48;;;0.10;99.90;;;;;;5093499;28;20036;-66
2021/12/27 03:15:24;;;;;;;23.42;13.63;;;0.00;99.90;;;;;;5092059;28;20069;-66
2021/12/27 03:17:52;;;;;;;18.50;11.50;;;0.00;99.90;;;;;;5098150;28;20046;-66
2021/12/27 03:20:21;;;;;;;25.27;13.13;;;0.30;99.90;;;;;;5097453;28;20118;-66
2021/12/27 03:22:47;;;;;;;22.90;12.80;;;-0.30;99.90;;;;;;5115682;28;20058;-66
2021/12/27 03:25:17;;;;;;;24.70;13.40;;;0.10;99.90;;;;;;5132077;27;20047;-66
2021/12/27 03:27:43;;;;;;;21.65;12.68;;;-0.20;99.90;;;;;;5097669;28;20138;-66
2021/12/27 03:30:14;;;;;;;21.52;12.80;;;-0.30;99.90;;;;;;5082360;28;20138;-66
2021/12/27 03:32:40;;;;;;;21.42;12.68;;;;;;;;;;5111301;28;20496;-66
2021/12/27 03:35:11;;;;;;;21.60;13.63;;;0.00;99.90;;;;;;5077239;28;20052;-66
2021/12/27 03:37:40;;;;;;;20.42;13.65;;;0.40;99.90;;;;;;5077751;28;20052;-66
2021/12/27 03:40:09;;;;;;;24.45;13.95;;;0.00;99.90;;;;;;5091667;28;20039;-66
2021/12/27 03:42:35;;;;;;;25.48;14.63;;;0.10;99.90;;;;;;5097093;28;20036;-66
2021/12/27 03:45:02;;;;;;;22.77;13.50;;;0.20;99.90;;;;;;5096658;28;20054;-66
2021/12/27 03:47:27;;;;;;;23.23;14.02;;;0.20;99.90;;;;;;5097474;28;20598;-66
2021/12/27 03:49:53;;;;;;;27.17;15.55;;;;;;;;;;5096723;28;20126;-66
2021/12/27 03:52:19;;;;;;;24.85;14.00;;;0.60;99.90;;;;;;5088105;28;20046;-66
2021/12/27 03:54:45;;;;;;;20.58;13.23;;;0.40;99.90;;;;;;5124550;27;20407;-66
2021/12/27 03:57:10;;;;;;;22.33;14.55;;;0.40;99.90;;;;;;5089619;28;20491;-66
2021/12/27 03:59:51;;;;;;;23.50;13.55;;;0.20;99.90;;;;;;5077062;28;20119;-66
2021/12/27 04:02:17;;;;;;;18.33;12.40;;;0.40;99.90;;;;;;5059752;28;20032;-66
2021/12/27 04:04:43;;;;;;;21.05;12.88;;;-0.10;99.90;;;;;;5088616;28;20035;-66
2021/12/27 04:07:10;;;;;;;24.77;14.98;;;0.50;99.90;;;;;;5097118;28;20039;-66
2021/12/27 04:09:37;;;;;;;20.50;12.77;;;0.20;99.90;;;;;;5079882;28;20565;-66
2021/12/27 04:12:03;;;;;;;22.80;13.55;;;0.30;99.90;;;;;;5096834;28;20046;-66
2021/12/27 04:14:29;;;;;;;21.80;12.73;;;0.30;99.90;;;;;;5097083;28;20131;-66
2021/12/27 04:16:54;;;;;;;20.38;12.82;;;0.20;99.90;;;;;;5114896;28;20543;-66
2021/12/27 04:19:20;;;;;;;22.90;14.25;;;0.00;99.90;;;;;;5114388;28;20032;-66
2021/12/27 04:21:46;;;;;;;23.92;13.77;;;0.60;99.90;;;;;;5131234;27;20048;-66
2021/12/27 04:24:12;;;;;;;22.95;13.95;;;0.30;99.90;;;;;;5096191;28;20565;-66
2021/12/27 04:26:38;;;;;;;20.60;13.43;;;0.30;99.90;;;;;;5094924;28;20047;-66
2021/12/27 04:29:06;;;;;;;20.08;13.88;;;0.30;99.90;;;;;;5095790;28;20043;-66
2021/12/27 04:31:31;;;;;;;19.40;13.25;;;0.30;99.90;;;;;;5096246;28;20622;-66
2021/12/27 04:33:57;;;;;;;25.30;14.48;;;0.50;99.90;;;;;;5079501;28;20047;-66
2021/12/27 04:36:23;;;;;;;23.38;14.02;;;0.30;99.90;;;;;;5096681;28;20043;-66
2021/12/27 04:38:49;;;;;;;22.40;13.75;;;0.10;99.90;;;;;;5114437;28;20419;-66
2021/12/27 04:41:18;;;;;;;23.77;13.90;;;0.30;99.90;;;;;;5095641;28;20047;-66
2021/12/27 04:43:44;;;;;;;23.45;13.88;;;;;;;;;;5097077;28;20511;-66
2021/12/27 04:46:10;;;;;;;23.02;14.45;;;0.40;99.90;;;;;;5096100;28;20040;-66
2021/12/27 04:48:36;;;;;;;27.30;15.32;;;0.40;99.90;;;;;;5130566;27;20080;-66
2021/12/27 04:51:01;;;;;;;22.10;14.23;;;0.40;99.90;;;;;;5130249;27;20065;-66
2021/12/27 04:53:27;;;;;;;22.73;14.68;;;0.30;99.90;;;;;;5095569;28;20039;-66
2021/12/27 04:55:53;;;;;;;26.00;15.23;;;0.20;99.90;;;;;;5095444;28;20040;-66
2021/12/27 04:58:23;;;;;;;58.58;31.85;;;0.30;99.90;;;;;;5095686;28;20043;-66
2021/12/27 05:00:50;;;;;;;39.50;23.15;;;0.40;99.90;;;;;;5095535;28;20104;-65
2021/12/27 05:03:16;;;;;;;30.00;17.10;;;0.50;99.90;;;;;;5079360;28;20089;-65
2021/12/27 05:05:44;;;;;;;87.57;42.25;;;0.30;99.90;;;;;;5130435;27;20431;-66
2021/12/27 05:08:10;;;;;;;46.45;25.35;;;0.30;99.90;;;;;;5096099;28;20392;-66
2021/12/27 05:10:37;;;;;;;55.33;30.65;;;0.40;99.90;;;;;;5095250;28;20145;-66
2021/12/27 05:13:03;;;;;;;28.90;17.50;;;0.30;99.90;;;;;;5078486;28;20047;-66
2021/12/27 05:15:29;;;;;;;25.60;16.20;;;0.40;99.90;;;;;;5095425;28;20043;-66
2021/12/27 05:17:55;;;;;;;35.83;20.10;;;0.50;99.90;;;;;;5114111;28;20464;-66
2021/12/27 05:20:21;;;;;;;31.63;19.38;;;0.50;99.90;;;;;;5081730;28;20558;-66
2021/12/27 05:22:47;;;;;;;27.75;17.85;;;0.40;99.90;;;;;;5093542;28;20507;-66
2021/12/27 05:25:16;;;;;;;28.33;18.27;;;0.40;99.90;;;;;;5128166;27;20075;-66
2021/12/27 05:27:45;;;;;;;30.40;19.13;;;0.40;99.90;;;;;;5095386;28;20135;-66
2021/12/27 05:30:12;;;;;;;38.75;22.85;;;0.40;99.90;;;;;;5095833;28;20048;-66
2021/12/27 05:32:40;;;;;;;28.45;17.77;;;0.60;99.90;;;;;;5095885;28;20564;-66
2021/12/27 05:35:06;;;;;;;54.20;38.88;;;0.70;99.90;;;;;;5111985;28;20832;-66
2021/12/27 05:37:32;;;;;;;34.05;20.05;;;0.60;99.90;;;;;;5088131;28;20549;-66
2021/12/27 05:40:05;;;;;;;31.17;18.63;;;0.30;99.90;;;;;;5127928;27;20052;-66
2021/12/27 05:42:32;;;;;;;30.10;18.55;;;0.50;99.90;;;;;;5095525;28;20078;-66
2021/12/27 05:44:58;;;;;;;36.08;19.55;;;0.60;99.90;;;;;;5095254;28;20064;-66
2021/12/27 05:47:24;;;;;;;32.65;18.67;;;0.30;99.90;;;;;;5112897;28;20509;-66
2021/12/27 05:49:49;;;;;;;32.58;20.50;;;0.50;99.90;;;;;;5095158;28;20052;-66
2021/12/27 05:52:15;;;;;;;32.88;17.98;;;0.50;99.90;;;;;;5106492;28;20035;-66
2021/12/27 05:54:41;;;;;;;30.20;18.35;;;;;;;;;;5093091;28;20047;-66
2021/12/27 05:57:07;;;;;;;33.20;19.83;;;0.50;99.90;;;;;;5095277;28;20236;-66
2021/12/27 05:59:32;;;;;;;36.20;20.38;;;0.60;99.90;;;;;;5095224;28;20556;-66
2021/12/27 06:01:58;;;;;;;29.63;17.70;;;0.60;99.90;;;;;;5093812;28;20057;-66
2021/12/27 06:04:24;;;;;;;30.58;17.85;;;0.60;99.90;;;;;;5095089;28;20384;-66
2021/12/27 06:06:50;;;;;;;30.33;18.67;;;0.60;99.90;;;;;;5094328;28;20035;-66
2021/12/27 06:09:15;;;;;;;32.78;19.05;;;0.70;99.90;;;;;;5127959;27;20043;-66
2021/12/27 06:11:41;;;;;;;33.42;18.73;;;0.60;99.90;;;;;;5095065;28;20130;-66
2021/12/27 06:14:07;;;;;;;32.25;18.08;;;0.60;99.90;;;;;;5095262;28;20044;-66
2021/12/27 06:16:32;;;;;;;34.95;19.63;;;0.60;99.90;;;;;;5094187;28;20040;-66
2021/12/27 06:18:58;;;;;;;31.38;18.52;;;0.50;99.90;;;;;;5094462;28;20454;-66
2021/12/27 06:21:24;;;;;;;30.80;17.90;;;0.70;99.90;;;;;;5094642;28;20460;-66
2021/12/27 06:23:50;;;;;;;33.58;18.85;;;0.30;99.90;;;;;;5076164;28;20101;-66
2021/12/27 06:26:15;;;;;;;35.85;21.48;;;0.20;99.90;;;;;;5092470;28;20057;-66
2021/12/27 06:28:41;;;;;;;50.00;27.17;;;0.60;99.90;;;;;;5108656;28;20115;-66
2021/12/27 06:31:07;;;;;;;44.40;23.17;;;0.40;99.90;;;;;;5087068;28;20470;-65
2021/12/27 06:33:33;;;;;;;37.05;20.23;;;0.40;99.90;;;;;;5071839;28;20508;-66
2021/12/27 06:35:58;;;;;;;32.38;19.33;;;0.30;99.90;;;;;;5090619;28;20401;-66
2021/12/27 06:38:24;;;;;;;33.55;19.25;;;0.20;99.90;;;;;;5072411;28;20481;-66
2021/12/27 06:40:51;;;;;;;31.55;18.35;;;0.40;99.90;;;;;;5090783;28;20048;-66
2021/12/27 06:43:17;;;;;;;34.20;18.88;;;0.70;99.90;;;;;;5091459;28;20119;-66
2021/12/27 06:45:43;;;;;;;33.22;20.17;;;0.60;99.90;;;;;;5090766;28;20114;-65
2021/12/27 06:48:09;;;;;;;36.83;19.67;;;0.60;99.90;;;;;;5091963;28;20132;-66
2021/12/27 06:50:35;;;;;;;34.58;19.38;;;0.60;99.90;;;;;;5091029;28;20075;-65
2021/12/27 06:53:00;;;;;;;36.65;19.58;;;0.60;99.90;;;;;;5071590;28;20045;-66
2021/12/27 06:55:26;;;;;;;34.72;21.15;;;0.60;99.90;;;;;;5070735;28;20045;-65
2021/12/27 06:57:52;;;;;;;31.17;19.48;;;;;;;;;;5070084;28;20090;-66
2021/12/27 07:00:18;;;;;;;34.60;18.88;;;;;;;;;;5070885;28;20076;-66
2021/12/27 07:02:45;;;;;;;31.20;18.45;;;0.60;99.90;;;;;;5083686;28;20123;-66
2021/12/27 07:05:11;;;;;;;33.78;19.63;;;0.60;99.90;;;;;;5089315;28;20038;-66
2021/12/27 07:07:37;;;;;;;40.05;20.73;;;0.70;99.90;;;;;;5073558;28;20048;-66
2021/12/27 07:10:08;;;;;;;36.47;19.63;;;0.60;99.90;;;;;;5090904;28;20131;-66
2021/12/27 07:12:34;;;;;;;34.63;18.30;;;0.70;99.90;;;;;;5090202;28;20032;-66
2021/12/27 07:15:00;;;;;;;39.80;22.25;;;0.60;99.90;;;;;;5079742;28;20067;-66
2021/12/27 07:17:26;;;;;;;38.00;20.48;;;0.70;99.90;;;;;;5081039;28;20416;-65
2021/12/27 07:19:52;;;;;;;40.00;19.92;;;0.60;99.90;;;;;;5089961;28;20059;-65
2021/12/27 07:22:18;;;;;;;40.47;20.85;;;0.80;99.90;;;;;;5090381;28;20063;-65
2021/12/27 07:24:45;;;;;;;38.72;22.65;;;0.60;99.90;;;;;;5091135;28;20048;-65
2021/12/27 07:27:11;;;;;;;39.97;21.13;;;0.70;99.90;;;;;;5073024;28;20044;-66
2021/12/27 07:29:37;;;;;;;41.47;20.40;;;0.60;99.90;;;;;;5093304;28;20080;-66
2021/12/27 07:32:03;;;;;;;38.88;21.85;;;0.70;99.90;;;;;;5112204;28;20384;-66
2021/12/27 07:34:29;;;;;;;43.05;21.80;;;0.70;99.90;;;;;;5089895;28;20123;-66
2021/12/27 07:36:56;;;;;;;61.58;28.05;;;0.70;99.90;;;;;;5114509;28;20149;-65
2021/12/27 07:39:22;;;;;;;44.90;22.98;;;0.70;99.90;;;;;;5094142;28;20408;-66
2021/12/27 07:41:49;;;;;;;41.35;22.38;;;0.70;99.90;;;;;;5092674;28;20051;-66
2021/12/27 07:44:15;;;;;;;38.28;22.13;;;0.70;99.90;;;;;;5076580;28;20051;-65
2021/12/27 07:46:42;;;;;;;53.30;25.83;;;;;;;;;;5093522;28;20400;-66
2021/12/27 07:49:09;;;;;;;44.50;22.17;;;0.80;99.90;;;;;;5093188;28;20177;-66
2021/12/27 07:51:35;;;;;;;52.58;24.95;;;0.70;99.90;;;;;;5076752;28;20511;-66
2021/12/27 07:54:01;;;;;;;41.80;23.90;;;0.50;99.90;;;;;;5091893;28;20039;-66
2021/12/27 07:56:26;;;;;;;49.10;22.45;;;0.70;99.90;;;;;;5091439;28;20044;-65
2021/12/27 07:58:52;;;;;;;47.35;23.05;;;0.80;99.90;;;;;;5093567;28;20446;-65
2021/12/27 08:01:18;;;;;;;42.92;21.40;;;;;;;;;;5092823;28;20038;-65
2021/12/27 08:03:44;;;;;;;42.95;22.60;;;0.80;99.90;;;;;;5095823;28;20680;-67
2021/12/27 08:06:10;;;;;;;42.97;22.58;;;1.00;99.90;;;;;;5096675;28;20120;-66
2021/12/27 08:08:36;;;;;;;45.05;21.95;;;1.00;99.90;;;;;;5096181;28;20492;-65
2021/12/27 08:11:02;;;;;;;42.60;22.33;;;0.90;99.90;;;;;;5095643;28;20127;-65
2021/12/27 08:13:28;;;;;;;43.05;21.17;;;;;;;;;;5093705;28;20043;-67
2021/12/27 08:15:54;;;;;;;42.33;22.83;;;1.20;99.90;;;;;;5077357;28;20088;-68
2021/12/27 08:18:20;;;;;;;44.83;22.95;;;0.90;99.90;;;;;;5094383;28;20047;-67
2021/12/27 08:20:47;;;;;;;43.35;22.15;;;;;;;;;;5094726;28;20079;-66
2021/12/27 08:23:13;;;;;;;42.80;23.15;;;;;;;;;;5094379;28;20039;-66
2021/12/27 08:25:39;;;;;;;44.83;22.90;;;1.20;99.90;;;;;;5077734;28;20047;-67
2021/12/27 08:28:05;;;;;;;44.45;22.15;;;0.90;99.90;;;;;;5094172;28;20040;-66
2021/12/27 08:30:31;;;;;;;47.42;23.25;;;1.20;99.90;;;;;;5073210;28;20142;-65
2021/12/27 08:32:59;;;;;;;48.70;24.20;;;0.80;99.90;;;;;;5094214;28;20077;-66
2021/12/27 08:35:26;;;;;;;47.90;23.05;;;0.90;99.90;;;;;;5111806;28;20053;-67
2021/12/27 08:37:52;;;;;;;43.28;23.13;;;;;;;;;;5093203;28;20039;-67
2021/12/27 08:40:18;;;;;;;48.88;24.63;;;1.00;99.90;;;;;;5073831;28;20054;-66
2021/12/27 08:42:44;;;;;;;46.40;24.08;;;1.00;99.90;;;;;;5074388;28;20118;-66
2021/12/27 08:45:11;;;;;;;48.75;26.08;;;1.10;99.90;;;;;;5086266;28;20043;-66
2021/12/27 08:47:37;;;;;;;49.45;25.45;;;1.00;99.90;;;;;;5093957;28;20043;-65
2021/12/27 08:50:05;;;;;;;50.10;24.83;;;1.10;99.90;;;;;;5075540;28;20042;-65
2021/12/27 08:52:31;;;;;;;54.08;27.25;;;1.10;99.90;;;;;;5093880;28;20082;-66
2021/12/27 08:54:58;;;;;;;48.20;26.10;;;1.60;99.90;;;;;;5087897;28;20106;-65
2021/12/27 08:57:24;;;;;;;58.28;26.67;;;0.90;99.90;;;;;;5085794;28;20055;-65
2021/12/27 08:59:49;;;;;;;67.45;27.65;;;1.10;99.90;;;;;;5081167;28;20039;-66
2021/12/27 09:02:15;;;;;;;58.67;28.17;;;1.10;99.90;;;;;;5093513;28;20051;-66
2021/12/27 09:04:41;;;;;;;55.58;27.10;;;1.20;99.90;;;;;;5093480;28;20044;-66
2021/12/27 09:07:08;;;;;;;69.32;28.85;;;1.10;99.90;;;;;;5093390;28;20077;-66
2021/12/27 09:09:33;;;;;;;64.22;28.58;;;1.30;99.90;;;;;;5091607;28;20092;-67
2021/12/27 09:12:00;;;;;;;68.10;30.45;;;1.20;99.90;;;;;;5093194;28;20059;-68
2021/12/27 09:14:26;;;;;;;62.28;29.63;;;;;;;;;;5092294;28;20040;-69
2021/12/27 09:16:52;;;;;;;61.40;28.58;;;;;;;;;;5085829;28;20100;-68
2021/12/27 09:19:18;;;;;;;68.32;31.13;;;;;;;;;;5075952;28;20130;-67
2021/12/27 09:21:43;;;;;;;62.55;30.27;;;1.40;99.90;;;;;;5088397;28;20044;-68
2021/12/27 09:24:10;;;;;;;80.95;30.70;;;;;;;;;;5093385;28;20039;-67
2021/12/27 09:26:35;;;;;;;68.47;31.17;;;1.20;99.90;;;;;;5092497;28;20040;-66
2021/12/27 09:29:01;;;;;;;63.72;28.42;;;;;;;;;;5111628;28;20100;-66
2021/12/27 09:31:27;;;;;;;56.65;27.38;;;;;;;;;;5092805;28;20056;-66
2021/12/27 09:33:53;;;;;;;60.83;27.42;;;1.10;99.90;;;;;;5093001;28;20054;-65
2021/12/27 09:36:19;;;;;;;66.43;30.35;;;;;;;;;;5075243;28;20420;-66
2021/12/27 09:38:45;;;;;;;55.20;28.27;;;1.70;99.90;;;;;;5086772;28;20426;-65
2021/12/27 09:41:12;;;;;;;57.33;25.92;;;1.50;99.90;;;;;;5092920;28;20051;-66
2021/12/27 09:43:39;;;;;;;58.22;27.38;;;2.00;99.90;;;;;;5092855;28;20165;-66
2021/12/27 09:46:05;;;;;;;55.97;25.17;;;1.70;99.90;;;;;;5091589;28;20043;-66
2021/12/27 09:48:30;;;;;;;46.22;24.00;;;1.80;99.90;;;;;;5090543;28;20035;-66
2021/12/27 09:50:57;;;;;;;59.63;26.83;;;2.20;99.90;;;;;;5110990;28;20173;-66
2021/12/27 09:53:23;;;;;;;52.47;25.85;;;1.30;99.90;;;;;;5075295;28;20476;-66
2021/12/27 09:55:49;;;;;;;54.03;27.23;;;1.80;99.90;;;;;;5092019;28;20511;-67
2021/12/27 09:58:15;;;;;;;54.33;27.95;;;2.00;99.90;;;;;;5092880;28;20052;-67
2021/12/27 10:00:42;;;;;;;62.75;26.73;;;;;;;;;;5126597;27;20055;-66
2021/12/27 10:03:09;;;;;;;59.15;27.00;;;1.70;99.90;;;;;;5092324;28;20154;-66
2021/12/27 10:05:36;;;;;;;64.18;26.63;;;1.70;99.90;;;;;;5072810;28;20032;-66
2021/12/27 10:08:03;;;;;;;54.47;26.00;;;1.70;99.90;;;;;;5063617;28;20093;-66
2021/12/27 10:10:31;;;;;;;55.90;25.98;;;1.70;99.90;;;;;;5110871;28;20047;-66
2021/12/27 10:12:57;;;;;;;48.03;23.85;;;;;;;;;;5092075;28;20516;-66
2021/12/27 10:15:37;;;;;;;59.17;25.42;;;1.70;99.90;;;;;;5091612;28;20055;-66
2021/12/27 10:18:15;;;;;;;70.65;33.35;;;1.70;99.90;;;;;;5085907;28;20047;-66
2021/12/27 10:20:42;;;;;;;68.63;35.85;;;1.70;99.90;;;;;;5092348;28;20048;-66
2021/12/27 10:23:09;;;;;;;94.68;45.00;;;2.20;99.90;;;;;;5091378;28;20951;-67
2021/12/27 10:25:35;;;;;;;58.92;27.02;;;1.60;99.90;;;;;;5091105;28;20392;-67
2021/12/27 10:28:02;;;;;;;56.63;27.80;;;1.90;99.90;;;;;;5092771;28;20042;-68
2021/12/27 10:30:31;;;;;;;49.80;25.33;;;1.80;99.90;;;;;;5090132;28;20060;-67
2021/12/27 10:33:10;;;;;;;56.97;26.58;;;1.70;99.90;;;;;;5092523;28;20055;-67
2021/12/27 10:35:49;;;;;;;52.17;25.67;;;1.90;99.90;;;;;;5091917;28;20181;-66
2021/12/27 10:38:33;;;;;;;51.95;24.58;;;1.50;99.90;;;;;;5109395;28;20036;-66
2021/12/27 10:41:27;;;;;;;59.28;26.60;;;1.90;99.90;;;;;;5092146;28;20051;-66
2021/12/27 10:43:56;;;;;;;68.85;32.70;;;2.30;99.90;;;;;;5090855;28;20035;-66
2021/12/27 10:46:22;;;;;;;52.40;26.05;;;2.10;99.90;;;;;;5068725;28;20079;-66
2021/12/27 10:48:57;;;;;;;55.10;30.13;;;1.50;99.90;;;;;;5105704;28;20074;-67
2021/12/27 10:51:24;;;;;;;48.75;25.88;;;1.60;99.90;;;;;;5085319;28;20059;-66
2021/12/27 10:53:53;;;;;;;54.42;25.20;;;2.00;99.90;;;;;;5088075;28;20040;-66
2021/12/27 10:56:21;;;;;;;64.57;32.83;;;1.60;99.90;;;;;;5092234;28;20047;-67
2021/12/27 10:58:52;;;;;;;72.45;36.83;;;1.80;99.90;;;;;;5088676;28;20044;-68
2021/12/27 11:01:20;;;;;;;52.88;26.98;;;2.00;99.90;;;;;;5090815;28;20047;-67
2021/12/27 11:03:59;;;;;;;57.63;28.02;;;1.90;99.90;;;;;;5070642;28;20046;-68
2021/12/27 11:06:28;;;;;;;50.33;24.48;;;1.80;99.90;;;;;;5120477;28;20052;-67
2021/12/27 11:08:54;;;;;;;53.75;26.23;;;2.10;99.90;;;;;;5091987;28;20050;-68
2021/12/27 11:11:23;;;;;;;51.75;25.77;;;1.90;99.90;;;;;;5074668;28;20051;-68
2021/12/27 11:13:52;;;;;;;49.42;24.98;;;2.30;99.90;;;;;;5124543;28;20055;-68
2021/12/27 11:16:18;;;;;;;52.75;24.55;;;2.50;99.90;;;;;;5091490;28;20658;-68
2021/12/27 11:18:45;;;;;;;54.47;26.65;;;1.80;99.90;;;;;;5091273;28;20040;-67
2021/12/27 11:21:18;;;;;;;58.63;25.80;;;2.30;99.90;;;;;;5073541;28;20058;-66
2021/12/27 11:23:47;;;;;;;62.10;29.63;;;2.40;99.90;;;;;;5091859;28;20486;-67
2021/12/27 11:26:20;;;;;;;58.65;27.70;;;1.90;99.90;;;;;;5090134;28;20051;-68
2021/12/27 11:28:46;;;;;;;52.03;24.70;;;2.10;99.90;;;;;;5090349;28;20059;-67
2021/12/27 11:31:24;;;;;;;76.97;28.60;;;2.40;99.90;;;;;;5090574;28;20052;-67
2021/12/27 11:33:57;;;;;;;70.00;31.92;;;2.00;99.90;;;;;;5090832;28;20079;-69
2021/12/27 11:36:25;;;;;;;62.85;28.00;;;-0.60;99.90;;;;;;5074921;28;20035;-68
2021/12/27 11:38:51;;;;;;;64.88;30.02;;;2.20;99.90;;;;;;5094889;28;20097;-68
2021/12/27 11:41:35;;;;;;;68.38;29.50;;;2.10;99.90;;;;;;5064869;28;20048;-68
2021/12/27 11:44:17;;;;;;;68.35;28.63;;;1.90;99.90;;;;;;5075473;28;20081;-68
2021/12/27 11:46:49;;;;;;;57.25;29.40;;;2.00;99.90;;;;;;5074972;28;20044;-74
2021/12/27 11:49:16;;;;;;;65.25;28.85;;;2.30;99.90;;;;;;5094511;28;20104;-69
2021/12/27 11:51:43;;;;;;;60.75;27.90;;;2.40;99.90;;;;;;5078893;28;20048;-69
2021/12/27 11:54:30;;;;;;;59.20;27.85;;;2.20;99.90;;;;;;5095134;28;20423;-66
2021/12/27 11:56:57;;;;;;;63.35;31.67;;;2.10;99.90;;;;;;5093239;28;20431;-69
2021/12/27 11:59:26;;;;;;;66.28;28.75;;;2.30;99.90;;;;;;5113381;27;20395;-68
2021/12/27 12:01:57;;;;;;;66.85;28.55;;;2.40;99.90;;;;;;5093739;28;20052;-69
2021/12/27 12:04:46;;;;;;;58.13;27.67;;;2.30;99.90;;;;;;5094051;28;20400;-69
2021/12/27 12:07:34;;;;;;;61.63;25.70;;;2.40;99.90;;;;;;5107175;28;20511;-70
2021/12/27 12:10:03;;;;;;;72.00;30.10;;;2.50;99.90;;;;;;5093340;28;20043;-70
2021/12/27 12:12:29;;;;;;;55.38;24.42;;;2.80;99.90;;;;;;5093638;28;20050;-72
2021/12/27 12:14:57;;;;;;;71.00;30.10;;;2.80;99.90;;;;;;5093865;28;20043;-71
2021/12/27 12:17:44;;;;;;;66.38;28.08;;;2.70;99.90;;;;;;5081444;28;20518;-70
2021/12/27 12:20:30;;;;;;;65.82;29.30;;;2.50;99.90;;;;;;5093617;28;20039;-70
2021/12/27 12:23:09;;;;;;;62.15;29.27;;;1.70;99.90;;;;;;5076283;28;20495;-70
2021/12/27 12:25:37;;;;;;;68.60;31.35;;;2.80;99.90;;;;;;5092945;28;20055;-69
2021/12/27 12:28:06;;;;;;;73.32;28.58;;;2.50;99.90;;;;;;5075823;28;20031;-70
2021/12/27 12:30:36;;;;;;;72.38;32.08;;;2.70;99.90;;;;;;5093061;28;20068;-69
2021/12/27 12:33:17;;;;;;;72.18;30.73;;;3.00;99.90;;;;;;5094454;28;20086;-68
2021/12/27 12:35:44;;;;;;;80.63;31.25;;;2.40;99.90;;;;;;5093387;28;20503;-69
2021/12/27 12:38:24;;;;;;;81.10;35.95;;;2.40;99.90;;;;;;5091091;28;20368;-69
2021/12/27 12:41:10;;;;;;;91.72;37.45;;;2.60;99.90;;;;;;5073434;28;20080;-69
2021/12/27 12:43:46;;;;;;;81.97;36.97;;;2.60;99.90;;;;;;5072996;28;20040;-69
2021/12/27 12:46:12;;;;;;;78.43;32.30;;;;;;;;;;5071847;28;20040;-69
2021/12/27 12:48:37;;;;;;;92.07;34.22;;;2.60;99.90;;;;;;5077506;28;20050;-67